Time;durP1;ratioP1;P1;durP2;ratioP2;P2;SDS_P1;SDS_P2;PMS_P1;PMS_P2;Temp;Humidity;BMP_temperature;BMP_pressure;BME280_temperature;BME280_humidity;BME280_pressure;Samples;Min_cycle;Max_cycle;Signal;HPM_P1;HPM_P2
2023/07/18 00:02:10;;;;;;;16.27;2.42;;;12.90;99.90;;;;;;5047742;28;20017;-83
2023/07/18 00:04:36;;;;;;;9.35;2.22;;;12.90;99.90;;;;;;5034094;28;20040;-83
2023/07/18 00:07:02;;;;;;;9.45;2.47;;;13.00;99.90;;;;;;5051911;28;20181;-83
2023/07/18 00:09:27;;;;;;;14.10;2.47;;;13.00;99.90;;;;;;5048771;28;20497;-83
2023/07/18 00:11:53;;;;;;;10.25;2.35;;;12.90;99.90;;;;;;5049389;28;20033;-84
2023/07/18 00:14:19;;;;;;;8.95;1.80;;;12.90;99.90;;;;;;5049290;28;20021;-83
2023/07/18 00:16:45;;;;;;;7.10;2.33;;;12.90;99.90;;;;;;5048782;28;20017;-83
2023/07/18 00:19:12;;;;;;;13.75;2.45;;;12.90;99.90;;;;;;5048743;28;20662;-83
2023/07/18 00:21:41;;;;;;;13.25;2.20;;;12.90;99.90;;;;;;5048892;28;20166;-82
2023/07/18 00:24:07;;;;;;;6.82;1.67;;;12.80;99.90;;;;;;5042702;28;20024;-83
2023/07/18 00:26:33;;;;;;;10.20;1.70;;;12.80;99.90;;;;;;5048554;28;20025;-82
2023/07/18 00:28:58;;;;;;;14.13;2.42;;;12.80;99.90;;;;;;5031480;28;20029;-83
2023/07/18 00:31:24;;;;;;;8.93;2.10;;;12.80;99.90;;;;;;5049078;28;20032;-83
2023/07/18 00:33:50;;;;;;;13.50;2.10;;;12.70;99.90;;;;;;5031398;28;20389;-83
2023/07/18 00:36:16;;;;;;;9.98;2.90;;;12.70;99.90;;;;;;5045194;28;20032;-82
2023/07/18 00:38:42;;;;;;;12.98;2.50;;;12.70;99.90;;;;;;5071146;22;20114;-81
2023/07/18 00:41:10;;;;;;;12.68;1.95;;;12.70;99.90;;;;;;5047847;28;20473;-82
2023/07/18 00:43:36;;;;;;;13.48;2.60;;;12.70;99.90;;;;;;5049392;28;20025;-81
2023/07/18 00:46:03;;;;;;;9.90;2.00;;;12.60;99.90;;;;;;5047794;28;20027;-81
2023/07/18 00:48:32;;;;;;;10.38;2.03;;;12.60;99.90;;;;;;5049385;28;20032;-81
2023/07/18 00:50:59;;;;;;;11.70;2.15;;;12.50;99.90;;;;;;5047836;28;20119;-81
2023/07/18 00:53:25;;;;;;;11.52;2.30;;;12.50;99.90;;;;;;5048932;28;20094;-81
2023/07/18 00:55:53;;;;;;;6.93;2.22;;;12.50;99.90;;;;;;5055711;28;20374;-81
2023/07/18 00:58:19;;;;;;;7.95;1.80;;;12.50;99.90;;;;;;5049312;28;20040;-81
2023/07/18 01:00:44;;;;;;;10.23;1.88;;;12.50;99.90;;;;;;5049162;28;20040;-81
2023/07/18 01:03:10;;;;;;;4.05;1.73;;;12.50;99.90;;;;;;5048709;28;20020;-81
2023/07/18 01:05:37;;;;;;;10.45;2.00;;;12.50;99.90;;;;;;5047554;28;20025;-81
2023/07/18 01:08:03;;;;;;;7.95;1.85;;;12.60;99.90;;;;;;5048530;28;20465;-81
2023/07/18 01:10:29;;;;;;;4.75;1.67;;;12.50;99.90;;;;;;5049202;28;20028;-81
2023/07/18 01:12:57;;;;;;;8.40;1.98;;;12.50;99.90;;;;;;5049127;28;20434;-81
2023/07/18 01:15:24;;;;;;;8.50;1.85;;;12.50;99.90;;;;;;5048827;28;20112;-81
2023/07/18 01:17:50;;;;;;;10.95;1.83;;;12.50;99.90;;;;;;5048594;28;20032;-81
2023/07/18 01:20:21;;;;;;;10.73;1.70;;;12.50;99.90;;;;;;5047267;28;20053;-81
2023/07/18 01:22:49;;;;;;;8.93;1.77;;;12.50;99.90;;;;;;5054203;28;20813;-80
2023/07/18 01:25:18;;;;;;;10.60;1.80;;;12.40;99.90;;;;;;5048739;28;20025;-81
2023/07/18 01:27:45;;;;;;;9.05;2.00;;;12.40;99.90;;;;;;5041593;28;20041;-80
2023/07/18 01:30:11;;;;;;;8.77;1.92;;;12.40;99.90;;;;;;5046843;28;20075;-81
2023/07/18 01:32:37;;;;;;;9.50;2.00;;;12.30;99.90;;;;;;5048436;28;20082;-81
2023/07/18 01:35:08;;;;;;;8.75;1.90;;;12.20;99.90;;;;;;5048384;28;20029;-81
2023/07/18 01:37:37;;;;;;;11.93;2.13;;;12.20;99.90;;;;;;5071705;22;20041;-82
2023/07/18 01:40:08;;;;;;;5.43;1.48;;;12.10;99.90;;;;;;5047453;28;20523;-82
2023/07/18 01:42:34;;;;;;;10.70;2.58;;;12.10;99.90;;;;;;5047130;28;20017;-82
2023/07/18 01:45:02;;;;;;;4.75;1.90;;;12.10;99.90;;;;;;5045707;28;20135;-82
2023/07/18 01:47:31;;;;;;;5.03;1.98;;;12.00;99.90;;;;;;5045606;28;20052;-82
2023/07/18 01:49:58;;;;;;;8.60;2.00;;;12.00;99.90;;;;;;5047291;28;20028;-82
2023/07/18 01:52:26;;;;;;;10.52;1.83;;;12.10;99.90;;;;;;5045624;28;20115;-82
2023/07/18 01:54:53;;;;;;;5.65;1.60;;;12.00;99.90;;;;;;5045647;28;20167;-82
2023/07/18 01:57:19;;;;;;;4.93;1.42;;;12.00;99.90;;;;;;5045370;28;20068;-82
2023/07/18 01:59:44;;;;;;;5.80;1.70;;;11.90;99.90;;;;;;5062006;28;20064;-81
2023/07/18 02:02:10;;;;;;;5.85;1.77;;;11.90;99.90;;;;;;5044929;28;20025;-81
2023/07/18 02:04:36;;;;;;;5.50;1.35;;;11.90;99.90;;;;;;5047118;28;20016;-82
2023/07/18 02:07:02;;;;;;;4.85;1.98;;;11.90;99.90;;;;;;5047745;28;20021;-82
2023/07/18 02:09:28;;;;;;;6.75;1.48;;;11.90;99.90;;;;;;5046764;28;20563;-82
2023/07/18 02:11:54;;;;;;;6.00;2.20;;;11.90;99.90;;;;;;5039040;28;20508;-82
2023/07/18 02:14:20;;;;;;;6.05;1.85;;;11.80;99.90;;;;;;5046439;28;20028;-82
2023/07/18 02:16:46;;;;;;;5.10;1.80;;;11.80;99.90;;;;;;5045187;28;20032;-82
2023/07/18 02:19:13;;;;;;;5.85;2.78;;;11.70;99.90;;;;;;5046605;28;20195;-82
2023/07/18 02:21:38;;;;;;;5.22;1.23;;;11.70;99.90;;;;;;5046589;28;20017;-82
2023/07/18 02:24:04;;;;;;;6.28;1.30;;;11.60;99.90;;;;;;5046734;28;20432;-82
2023/07/18 02:26:30;;;;;;;6.75;1.70;;;11.60;99.90;;;;;;5046621;28;20032;-83
2023/07/18 02:28:56;;;;;;;5.07;1.83;;;11.50;99.90;;;;;;5047220;28;20489;-82
2023/07/18 02:31:21;;;;;;;4.43;1.35;;;11.50;99.90;;;;;;5046557;28;20051;-81
2023/07/18 02:33:47;;;;;;;6.20;1.70;;;11.50;99.90;;;;;;5044265;28;20021;-82
2023/07/18 02:36:13;;;;;;;5.47;1.27;;;11.50;99.90;;;;;;5046563;28;20804;-81
2023/07/18 02:38:38;;;;;;;7.38;2.20;;;11.50;99.90;;;;;;5044476;28;20091;-81
2023/07/18 02:41:04;;;;;;;6.20;1.65;;;11.40;99.90;;;;;;5038930;28;20039;-81
2023/07/18 02:43:30;;;;;;;6.90;1.40;;;11.40;99.90;;;;;;5045961;28;20488;-80
2023/07/18 02:45:56;;;;;;;11.02;2.75;;;11.40;99.90;;;;;;5046585;28;20056;-81
2023/07/18 02:48:21;;;;;;;8.30;2.08;;;11.40;99.90;;;;;;5044266;28;20021;-80
2023/07/18 02:50:48;;;;;;;10.20;1.70;;;11.30;99.90;;;;;;5046424;28;20033;-80
2023/07/18 02:53:14;;;;;;;3.97;1.60;;;11.20;99.90;;;;;;5046579;28;20567;-80
2023/07/18 02:55:40;;;;;;;5.43;1.33;;;11.20;99.90;;;;;;5046000;28;20105;-81
2023/07/18 02:58:05;;;;;;;4.82;1.27;;;11.10;99.90;;;;;;5046328;28;20032;-80
2023/07/18 03:00:33;;;;;;;7.68;1.27;;;11.10;99.90;;;;;;5046148;28;20132;-80
2023/07/18 03:03:00;;;;;;;7.85;3.45;;;11.10;99.90;;;;;;5046262;28;20028;-81
2023/07/18 03:05:27;;;;;;;8.85;1.75;;;11.10;99.90;;;;;;5046207;28;20029;-80
2023/07/18 03:07:54;;;;;;;8.13;2.55;;;11.10;99.90;;;;;;5071032;22;20044;-78
2023/07/18 03:10:21;;;;;;;6.00;1.67;;;11.00;99.90;;;;;;5046094;28;20092;-79
2023/07/18 03:12:46;;;;;;;5.30;1.58;;;11.00;99.90;;;;;;5043858;28;20504;-78
2023/07/18 03:15:12;;;;;;;5.95;2.10;;;10.90;99.90;;;;;;5046371;28;20472;-78
2023/07/18 03:17:38;;;;;;;6.53;1.60;;;11.00;99.90;;;;;;5045806;28;20519;-78
2023/07/18 03:20:23;;;;;;;4.00;1.70;;;10.90;99.90;;;;;;5045869;28;20032;-79
2023/07/18 03:22:50;;;;;;;5.18;1.45;;;10.90;99.90;;;;;;5044740;28;20456;-78
2023/07/18 03:25:17;;;;;;;5.93;1.60;;;10.80;99.90;;;;;;5043869;28;20078;-78
2023/07/18 03:27:43;;;;;;;5.85;1.52;;;10.80;99.90;;;;;;5046208;28;20482;-78
2023/07/18 03:30:12;;;;;;;7.55;1.73;;;10.80;99.90;;;;;;5045849;28;20436;-79
2023/07/18 03:32:39;;;;;;;5.57;1.48;;;10.70;99.90;;;;;;5043570;28;20127;-79
2023/07/18 03:35:06;;;;;;;7.82;1.98;;;10.70;99.90;;;;;;5045232;28;20036;-79
2023/07/18 03:37:32;;;;;;;10.60;1.50;;;10.60;99.90;;;;;;5047946;28;20037;-79
2023/07/18 03:39:58;;;;;;;5.07;1.60;;;10.50;99.90;;;;;;5045820;28;20047;-79
2023/07/18 03:42:24;;;;;;;4.15;1.45;;;10.50;99.90;;;;;;5045540;28;20481;-79
2023/07/18 03:44:49;;;;;;;9.13;2.45;;;10.50;99.90;;;;;;5045559;28;20106;-79
2023/07/18 03:47:15;;;;;;;4.28;1.50;;;10.50;99.90;;;;;;5045128;28;20198;-79
2023/07/18 03:49:41;;;;;;;6.70;1.90;;;10.50;99.90;;;;;;5060452;28;20047;-79
2023/07/18 03:52:07;;;;;;;3.55;1.42;;;10.40;99.90;;;;;;5045113;28;20025;-79
2023/07/18 03:54:33;;;;;;;8.20;1.83;;;10.40;99.90;;;;;;5045138;28;20426;-78
2023/07/18 03:57:00;;;;;;;10.55;1.98;;;10.40;99.90;;;;;;5045554;28;20029;-78
2023/07/18 03:59:25;;;;;;;5.38;1.35;;;10.40;99.90;;;;;;5045328;28;20033;-79
2023/07/18 04:01:52;;;;;;;5.18;1.55;;;10.30;99.90;;;;;;5045957;28;20082;-79
2023/07/18 04:04:18;;;;;;;3.38;1.60;;;10.30;99.90;;;;;;5045638;28;20025;-79
2023/07/18 04:06:43;;;;;;;7.53;1.58;;;10.30;99.90;;;;;;5065677;22;20040;-81
2023/07/18 04:09:10;;;;;;;7.72;1.70;;;10.20;99.90;;;;;;5045687;28;20045;-80
2023/07/18 04:11:36;;;;;;;3.80;1.55;;;10.10;99.90;;;;;;5044420;28;20049;-81
2023/07/18 04:14:02;;;;;;;8.88;1.58;;;10.10;99.90;;;;;;5048172;28;20025;-80
2023/07/18 04:16:28;;;;;;;10.02;2.15;;;10.10;99.90;;;;;;5047691;28;20135;-81
2023/07/18 04:18:53;;;;;;;6.50;1.55;;;10.10;99.90;;;;;;5049042;28;20045;-82
2023/07/18 04:21:19;;;;;;;8.68;1.70;;;10.10;99.90;;;;;;5049046;28;20017;-81
2023/07/18 04:23:45;;;;;;;5.97;1.63;;;10.10;99.90;;;;;;5048298;28;20131;-80
2023/07/18 04:26:12;;;;;;;7.50;2.00;;;10.10;99.90;;;;;;5046649;28;20029;-81
2023/07/18 04:28:38;;;;;;;4.90;1.70;;;10.00;99.90;;;;;;5048210;28;20431;-81
2023/07/18 04:31:05;;;;;;;6.95;1.70;;;10.00;99.90;;;;;;5046989;28;20028;-81
2023/07/18 04:33:36;;;;;;;5.93;1.83;;;9.90;99.90;;;;;;5047228;28;20025;-81
2023/07/18 04:36:04;;;;;;;;;;;9.90;99.90;;;;;;5049492;28;20064;-80
2023/07/18 04:38:30;;;;;;;7.15;1.67;;;9.90;99.90;;;;;;5050634;28;19916;-81
2023/07/18 04:40:56;;;;;;;6.80;1.60;;;10.00;99.90;;;;;;5048749;28;20103;-81
2023/07/18 04:43:22;;;;;;;4.82;1.40;;;10.00;99.90;;;;;;5048704;28;20120;-81
2023/07/18 04:45:48;;;;;;;5.82;1.90;;;10.00;99.90;;;;;;5046288;28;20029;-82
2023/07/18 04:48:15;;;;;;;9.80;1.77;;;9.90;99.90;;;;;;5048024;28;20076;-81
2023/07/18 04:50:41;;;;;;;7.38;1.70;;;9.90;99.90;;;;;;5046553;28;20021;-81
2023/07/18 04:53:08;;;;;;;3.83;1.35;;;10.00;99.90;;;;;;5062453;28;20057;-81
2023/07/18 04:55:36;;;;;;;4.53;1.23;;;10.00;99.90;;;;;;5046476;28;20028;-81
2023/07/18 04:58:03;;;;;;;5.05;1.48;;;10.00;99.90;;;;;;5048730;28;20077;-80
2023/07/18 05:00:30;;;;;;;6.15;1.77;;;10.00;99.90;;;;;;5048398;28;20029;-80
2023/07/18 05:02:57;;;;;;;8.77;1.60;;;10.10;99.90;;;;;;5048087;28;20523;-81
2023/07/18 05:05:24;;;;;;;3.95;1.17;;;10.10;99.90;;;;;;5048114;28;20465;-80
2023/07/18 05:07:49;;;;;;;10.40;1.80;;;10.10;99.90;;;;;;5080044;22;20056;-79
2023/07/18 05:10:15;;;;;;;5.43;1.40;;;10.20;99.90;;;;;;5068251;28;20574;-78
2023/07/18 05:12:41;;;;;;;4.25;1.33;;;10.30;99.90;;;;;;5050444;28;20115;-79
2023/07/18 05:15:08;;;;;;;10.75;1.55;;;10.40;99.90;;;;;;5068057;28;20031;-78
2023/07/18 05:17:33;;;;;;;4.93;1.30;;;10.40;99.90;;;;;;5051137;28;20666;-79
2023/07/18 05:19:59;;;;;;;4.45;1.67;;;10.50;99.90;;;;;;5066274;28;20055;-79
2023/07/18 05:22:25;;;;;;;5.55;1.70;;;10.60;99.90;;;;;;5066276;28;20020;-79
2023/07/18 05:24:50;;;;;;;4.15;1.42;;;10.70;99.90;;;;;;5065201;28;20024;-79
2023/07/18 05:27:17;;;;;;;6.43;1.73;;;10.70;99.90;;;;;;5067596;28;20032;-79
2023/07/18 05:29:43;;;;;;;5.55;1.48;;;10.80;99.90;;;;;;5065423;28;20063;-79
2023/07/18 05:32:09;;;;;;;4.90;1.55;;;10.90;99.90;;;;;;5067485;28;20077;-80
2023/07/18 05:34:35;;;;;;;5.75;1.60;;;10.90;99.90;;;;;;5067610;28;20825;-79
2023/07/18 05:37:01;;;;;;;8.43;1.73;;;10.90;99.90;;;;;;5065693;28;20040;-78
2023/07/18 05:39:28;;;;;;;3.28;1.60;;;11.00;99.90;;;;;;5067350;28;20024;-80
2023/07/18 05:41:54;;;;;;;3.75;1.30;;;11.10;99.90;;;;;;5067294;28;20636;-80
2023/07/18 05:44:20;;;;;;;5.55;2.05;;;11.30;99.90;;;;;;5067593;28;20032;-79
2023/07/18 05:46:46;;;;;;;5.97;1.80;;;11.30;99.90;;;;;;5066880;28;20034;-80
2023/07/18 05:49:11;;;;;;;4.35;1.70;;;11.50;99.90;;;;;;5066774;28;20016;-79
2023/07/18 05:51:37;;;;;;;4.07;1.60;;;11.60;99.90;;;;;;5067304;28;20028;-79
2023/07/18 05:54:05;;;;;;;3.67;1.80;;;11.80;99.90;;;;;;5066787;28;20024;-79
2023/07/18 05:56:34;;;;;;;4.65;2.05;;;11.90;99.90;;;;;;5066930;28;20411;-80
2023/07/18 05:59:00;;;;;;;4.65;1.67;;;12.10;99.90;;;;;;5066768;28;20438;-79
2023/07/18 06:01:26;;;;;;;4.45;1.90;;;12.20;99.90;;;;;;5067317;28;20443;-79
2023/07/18 06:03:51;;;;;;;3.78;1.50;;;12.30;99.90;;;;;;5066879;28;20537;-79
2023/07/18 06:06:19;;;;;;;2.50;1.50;;;12.50;99.90;;;;;;5066598;28;20067;-79
2023/07/18 06:08:45;;;;;;;4.28;1.83;;;12.60;99.90;;;;;;5074783;22;20492;-80
2023/07/18 06:11:11;;;;;;;7.47;1.83;;;12.80;99.90;;;;;;5045818;28;20082;-80
2023/07/18 06:13:36;;;;;;;4.97;1.40;;;12.90;99.90;;;;;;5046552;28;20017;-81
2023/07/18 06:16:02;;;;;;;6.80;1.92;;;13.10;99.90;;;;;;5045520;28;20025;-81
2023/07/18 06:18:28;;;;;;;3.88;1.40;;;13.30;99.90;;;;;;5046431;28;20392;-80
2023/07/18 06:20:54;;;;;;;1.55;1.20;;;13.60;99.90;;;;;;5046629;28;20048;-81
2023/07/18 06:23:20;;;;;;;3.28;1.05;;;13.70;99.90;;;;;;5046461;28;20052;-81
2023/07/18 06:25:46;;;;;;;2.35;1.10;;;13.90;99.90;;;;;;5046495;28;20044;-81
2023/07/18 06:28:11;;;;;;;1.95;1.00;;;14.00;99.90;;;;;;5046474;28;20029;-82
2023/07/18 06:30:37;;;;;;;6.35;1.60;;;14.20;99.90;;;;;;5047077;28;20083;-81
2023/07/18 06:33:02;;;;;;;2.10;0.95;;;14.40;99.90;;;;;;5046371;28;20017;-81
2023/07/18 06:35:29;;;;;;;6.00;1.40;;;14.60;99.90;;;;;;5043556;28;20087;-81
2023/07/18 06:37:55;;;;;;;2.00;1.00;;;14.80;99.90;;;;;;5047495;28;20485;-82
2023/07/18 06:40:20;;;;;;;3.63;1.40;;;15.10;99.00;;;;;;5046132;28;20059;-81
2023/07/18 06:42:46;;;;;;;2.33;1.10;;;15.30;99.10;;;;;;5046404;28;20036;-82
2023/07/18 06:45:13;;;;;;;2.05;1.05;;;15.30;97.60;;;;;;5046454;28;20025;-82
2023/07/18 06:47:39;;;;;;;4.30;1.33;;;15.40;97.30;;;;;;5045766;28;20021;-81
2023/07/18 06:50:05;;;;;;;5.50;1.30;;;15.50;97.90;;;;;;5044299;28;20028;-82
2023/07/18 06:52:31;;;;;;;4.30;1.25;;;15.50;97.20;;;;;;5043940;28;20480;-82
2023/07/18 06:54:56;;;;;;;2.58;1.33;;;15.70;96.70;;;;;;5045623;28;20082;-82
2023/07/18 06:57:22;;;;;;;2.75;1.30;;;15.80;95.90;;;;;;5045828;28;20509;-82
2023/07/18 06:59:48;;;;;;;3.35;1.13;;;15.80;95.60;;;;;;5046051;28;20037;-82
2023/07/18 07:02:13;;;;;;;5.20;1.15;;;15.90;95.90;;;;;;5045920;28;20519;-82
2023/07/18 07:04:39;;;;;;;3.20;1.13;;;15.90;96.00;;;;;;5046449;28;20059;-82
2023/07/18 07:07:08;;;;;;;3.17;1.10;;;16.00;95.30;;;;;;5066305;22;20001;-80
2023/07/18 07:09:34;;;;;;;3.88;1.20;;;16.00;93.50;;;;;;5045629;28;20074;-81
2023/07/18 07:12:01;;;;;;;6.10;1.20;;;16.10;92.20;;;;;;5045214;28;20427;-81
2023/07/18 07:14:26;;;;;;;7.15;1.42;;;16.20;92.40;;;;;;5043342;28;20044;-79
2023/07/18 07:16:53;;;;;;;2.00;1.17;;;16.30;92.20;;;;;;5045061;28;20138;-81
2023/07/18 07:19:19;;;;;;;5.75;1.15;;;16.40;93.10;;;;;;5044712;28;20059;-81
2023/07/18 07:21:45;;;;;;;2.55;1.02;;;16.60;92.50;;;;;;5045224;28;20393;-78
2023/07/18 07:24:11;;;;;;;4.20;1.67;;;16.80;92.20;;;;;;5045879;28;20051;-81
2023/07/18 07:26:37;;;;;;;6.68;1.50;;;17.10;92.70;;;;;;5043513;28;20025;-79
2023/07/18 07:29:04;;;;;;;4.70;1.27;;;17.20;92.30;;;;;;5044102;28;20911;-78
2023/07/18 07:31:31;;;;;;;9.18;1.98;;;17.40;91.10;;;;;;5046058;28;20030;-78
2023/07/18 07:33:57;;;;;;;6.05;1.35;;;17.40;92.20;;;;;;5045806;28;20478;-78
2023/07/18 07:36:22;;;;;;;3.58;1.45;;;17.60;92.90;;;;;;5043842;28;20039;-79
2023/07/18 07:38:49;;;;;;;7.40;1.60;;;17.60;93.10;;;;;;5043716;28;20489;-79
2023/07/18 07:41:15;;;;;;;12.60;2.10;;;17.60;93.30;;;;;;5045047;28;20029;-79
2023/07/18 07:43:40;;;;;;;4.03;1.60;;;17.70;93.70;;;;;;5044337;28;20448;-79
2023/07/18 07:46:06;;;;;;;8.70;1.75;;;17.70;94.10;;;;;;5045744;28;20525;-79
2023/07/18 07:48:32;;;;;;;9.13;1.60;;;17.80;94.00;;;;;;5048594;28;20021;-81
2023/07/18 07:51:00;;;;;;;6.40;1.38;;;17.60;94.30;;;;;;5049200;28;20025;-81
2023/07/18 07:53:26;;;;;;;8.57;2.17;;;17.70;94.30;;;;;;5049485;28;20021;-82
2023/07/18 07:55:52;;;;;;;7.22;1.95;;;17.70;94.70;;;;;;5047473;28;20025;-79
2023/07/18 07:58:17;;;;;;;8.00;2.10;;;17.80;94.40;;;;;;5047988;28;20061;-80
2023/07/18 08:00:43;;;;;;;6.13;1.75;;;18.00;94.60;;;;;;5048184;28;20585;-82
2023/07/18 08:03:09;;;;;;;7.90;1.65;;;18.20;93.40;;;;;;5048851;28;20048;-80
2023/07/18 08:05:35;;;;;;;11.68;2.30;;;18.50;93.10;;;;;;5048741;28;20087;-79
2023/07/18 08:08:01;;;;;;;9.85;1.92;;;18.90;93.60;;;;;;5071487;22;20063;-82
2023/07/18 08:10:27;;;;;;;8.38;1.90;;;19.20;92.30;;;;;;5049395;28;20025;-83
2023/07/18 08:12:52;;;;;;;6.40;1.73;;;19.40;91.40;;;;;;5049279;28;20067;-84
2023/07/18 08:15:19;;;;;;;5.03;1.80;;;19.40;91.50;;;;;;5049022;28;20025;-84
2023/07/18 08:17:45;;;;;;;13.10;1.90;;;19.30;91.30;;;;;;5048720;28;20024;-83
2023/07/18 08:20:12;;;;;;;5.40;1.30;;;19.30;91.00;;;;;;5048652;28;21515;-84
2023/07/18 08:22:39;;;;;;;9.77;1.65;;;19.50;88.70;;;;;;5048333;28;20021;-83
2023/07/18 08:25:04;;;;;;;6.82;1.40;;;19.60;89.50;;;;;;5049074;28;20102;-83
2023/07/18 08:27:30;;;;;;;8.50;1.20;;;19.60;88.80;;;;;;5048566;28;20025;-83
2023/07/18 08:29:56;;;;;;;9.00;1.20;;;19.60;87.30;;;;;;5048493;28;20021;-83
2023/07/18 08:32:22;;;;;;;10.30;1.52;;;19.70;87.70;;;;;;5048544;28;20020;-82
2023/07/18 08:34:47;;;;;;;3.83;1.23;;;19.70;86.30;;;;;;5049077;28;20063;-84
2023/07/18 08:37:13;;;;;;;4.97;1.38;;;19.60;87.80;;;;;;5048822;28;20040;-83
2023/07/18 08:39:39;;;;;;;3.40;1.30;;;19.80;86.80;;;;;;5048028;28;20040;-84
2023/07/18 08:42:08;;;;;;;5.68;1.60;;;20.00;85.20;;;;;;5048661;28;20024;-84
2023/07/18 08:44:37;;;;;;;6.38;1.50;;;20.10;85.50;;;;;;5048453;28;20060;-84
2023/07/18 08:47:05;;;;;;;7.00;1.30;;;20.70;85.80;;;;;;5060366;28;20473;-84
2023/07/18 08:49:35;;;;;;;7.38;1.23;;;21.40;80.20;;;;;;5062320;28;20059;-84
2023/07/18 08:52:01;;;;;;;10.85;1.88;;;22.20;76.20;;;;;;5061127;28;20553;-84
2023/07/18 08:54:27;;;;;;;4.40;1.38;;;23.00;74.70;;;;;;5064979;28;20043;-82
2023/07/18 08:56:54;;;;;;;10.60;1.63;;;23.40;71.60;;;;;;5061775;28;20024;-84
2023/07/18 08:59:19;;;;;;;8.75;1.20;;;23.60;67.00;;;;;;5063008;28;20036;-83
2023/07/18 09:01:49;;;;;;;5.65;1.25;;;24.10;68.60;;;;;;5057142;28;20028;-83
2023/07/18 09:04:16;;;;;;;5.95;1.00;;;24.10;65.60;;;;;;5047482;28;20083;-84
2023/07/18 09:09:27;;;;;;;5.75;1.10;;;25.30;63.30;;;;;;5066074;28;20055;-81
2023/07/18 09:11:57;;;;;;;5.68;1.10;;;26.30;59.50;;;;;;5067635;28;20024;-79
2023/07/18 09:14:28;;;;;;;7.97;1.35;;;26.00;58.00;;;;;;5067878;28;20101;-79
2023/07/18 09:16:54;;;;;;;5.50;1.30;;;26.10;58.20;;;;;;5061165;28;20032;-79
2023/07/18 09:19:34;;;;;;;7.70;1.83;;;26.30;57.70;;;;;;5067876;28;20063;-80
2023/07/18 09:22:00;;;;;;;4.20;1.23;;;26.20;56.60;;;;;;5067760;28;20075;-80
2023/07/18 09:24:35;;;;;;;5.30;1.50;;;26.10;57.40;;;;;;5067310;28;20460;-79
2023/07/18 09:27:02;;;;;;;4.93;1.38;;;26.20;57.90;;;;;;5067337;28;20111;-78
2023/07/18 09:29:28;;;;;;;7.82;1.52;;;26.80;56.30;;;;;;5067121;28;20020;-80
2023/07/18 09:31:54;;;;;;;4.60;0.98;;;27.70;55.80;;;;;;5067439;28;20024;-80
2023/07/18 09:34:20;;;;;;;5.07;1.50;;;28.80;54.70;;;;;;5067564;28;20103;-81
2023/07/18 09:36:59;;;;;;;6.38;1.45;;;28.80;51.80;;;;;;5067100;28;20033;-80
2023/07/18 09:39:26;;;;;;;2.70;1.20;;;28.80;49.80;;;;;;5047414;28;20532;-80
2023/07/18 09:41:53;;;;;;;6.85;1.33;;;28.80;51.00;;;;;;5066907;28;20110;-79
2023/07/18 09:44:20;;;;;;;5.93;1.60;;;28.60;49.80;;;;;;5067344;28;20491;-79
2023/07/18 09:46:45;;;;;;;3.33;1.10;;;28.10;49.30;;;;;;5067146;28;20016;-78
2023/07/18 09:49:11;;;;;;;7.80;1.63;;;28.20;50.00;;;;;;5066655;28;20035;-80
2023/07/18 09:51:38;;;;;;;4.57;1.13;;;28.50;48.00;;;;;;5067372;28;20119;-81
2023/07/18 09:54:09;;;;;;;7.50;0.90;;;28.50;49.30;;;;;;5049257;28;20412;-81
2023/07/18 09:56:39;;;;;;;5.97;1.20;;;28.70;48.00;;;;;;5066519;28;20077;-81
2023/07/18 09:59:07;;;;;;;5.90;1.10;;;29.30;47.60;;;;;;5065891;28;20489;-80
2023/07/18 10:01:32;;;;;;;6.40;1.60;;;30.20;45.00;;;;;;5066980;28;20107;-80
2023/07/18 10:03:58;;;;;;;5.07;1.00;;;30.70;45.10;;;;;;5066835;28;20132;-80
2023/07/18 10:06:25;;;;;;;4.97;1.17;;;31.10;45.30;;;;;;5066613;28;20389;-78
2023/07/18 10:08:53;;;;;;;5.05;1.02;;;31.00;41.60;;;;;;5092952;22;20451;-86
2023/07/18 10:11:19;;;;;;;5.30;0.95;;;30.70;40.20;;;;;;5056379;28;20043;-85
2023/07/18 10:13:57;;;;;;;5.88;1.10;;;30.90;39.40;;;;;;5068047;28;20025;-85
2023/07/18 10:16:26;;;;;;;4.60;0.85;;;30.90;42.20;;;;;;5068439;28;20043;-86
2023/07/18 10:18:52;;;;;;;6.15;0.90;;;31.30;40.10;;;;;;5050820;28;20047;-84
2023/07/18 10:21:34;;;;;;;4.53;1.38;;;31.90;40.00;;;;;;5047635;28;20025;-86
2023/07/18 10:24:21;;;;;;;4.80;1.20;;;32.30;39.00;;;;;;5047120;28;20029;-85
2023/07/18 10:27:08;;;;;;;6.00;1.00;;;32.90;40.30;;;;;;5047752;28;20512;-84
2023/07/18 10:29:38;;;;;;;3.90;1.25;;;32.50;37.10;;;;;;5047327;28;20032;-84
2023/07/18 10:32:06;;;;;;;5.30;1.10;;;31.70;38.90;;;;;;5047836;28;20036;-85
2023/07/18 10:34:38;;;;;;;3.63;1.17;;;31.90;39.60;;;;;;5029356;28;20131;-84
2023/07/18 10:37:07;;;;;;;4.55;1.00;;;31.90;39.10;;;;;;5047352;28;20021;-84
2023/07/18 10:42:08;;;;;;;7.80;1.02;;;32.10;38.30;;;;;;5047696;28;20481;-84
2023/07/18 10:44:36;;;;;;;5.15;1.40;;;32.80;36.90;;;;;;5047288;28;20071;-82
2023/07/18 10:47:12;;;;;;;2.38;0.80;;;33.40;36.40;;;;;;5029281;28;20503;-84
2023/07/18 10:49:38;;;;;;;3.97;0.98;;;32.60;35.00;;;;;;5047539;28;20588;-84
2023/07/18 10:52:03;;;;;;;3.80;0.90;;;32.50;36.00;;;;;;5047415;28;20634;-83
2023/07/18 10:54:29;;;;;;;3.67;0.68;;;32.60;37.10;;;;;;5029072;28;20132;-83
2023/07/18 10:56:55;;;;;;;4.93;1.40;;;33.20;35.50;;;;;;5047448;28;20033;-82
2023/07/18 10:59:22;;;;;;;3.47;0.90;;;33.60;35.60;;;;;;5047227;28;20485;-83
2023/07/18 11:01:47;;;;;;;4.43;1.05;;;33.60;33.00;;;;;;5047700;28;20036;-83
2023/07/18 11:04:13;;;;;;;4.35;1.30;;;34.10;35.00;;;;;;5047412;28;20021;-83
2023/07/18 11:09:35;;;;;;;2.92;0.80;;;33.20;35.20;;;;;;5042121;28;20485;-80
2023/07/18 11:12:02;;;;;;;1.67;0.70;;;33.40;32.90;;;;;;5044391;28;20029;-81
2023/07/18 11:14:38;;;;;;;2.97;1.05;;;33.70;33.80;;;;;;5044679;28;20028;-80
2023/07/18 11:17:10;;;;;;;4.20;0.98;;;34.40;33.30;;;;;;5038133;28;20021;-79
2023/07/18 11:19:36;;;;;;;1.63;0.77;;;34.00;32.70;;;;;;5045236;28;20040;-79
2023/07/18 11:22:02;;;;;;;1.90;0.77;;;34.70;32.10;;;;;;5028741;28;20028;-81
2023/07/18 11:24:28;;;;;;;3.47;0.90;;;34.50;31.50;;;;;;5050344;28;20028;-80
2023/07/18 11:27:17;;;;;;;3.53;0.95;;;34.70;30.40;;;;;;5050277;28;20025;-80
2023/07/18 11:29:54;;;;;;;2.78;0.70;;;34.90;31.00;;;;;;5049939;28;20024;-80
2023/07/18 11:32:40;;;;;;;3.83;0.93;;;34.60;29.90;;;;;;5049788;28;20408;-81
2023/07/18 11:35:26;;;;;;;3.75;0.98;;;34.30;30.20;;;;;;5049965;28;20021;-81
2023/07/18 11:37:53;;;;;;;3.03;1.15;;;33.60;30.50;;;;;;5049895;28;20041;-80
2023/07/18 11:40:21;;;;;;;1.73;0.70;;;33.00;32.70;;;;;;5049868;28;20139;-80
2023/07/18 11:42:52;;;;;;;4.00;1.38;;;32.50;30.20;;;;;;5031677;28;20025;-81
2023/07/18 11:45:20;;;;;;;4.55;1.00;;;33.30;33.30;;;;;;5049747;28;20025;-81
2023/07/18 11:47:48;;;;;;;2.28;0.60;;;34.10;31.40;;;;;;5049342;28;20052;-79
2023/07/18 11:50:14;;;;;;;2.70;0.70;;;34.40;29.40;;;;;;5031749;28;20029;-81
2023/07/18 11:52:49;;;;;;;3.55;0.90;;;34.80;30.60;;;;;;5049742;28;20021;-80
2023/07/18 11:55:16;;;;;;;2.70;0.70;;;35.00;30.00;;;;;;5043492;28;20124;-80
2023/07/18 11:57:42;;;;;;;2.65;0.85;;;34.50;30.20;;;;;;5049553;28;20021;-80
2023/07/18 12:00:10;;;;;;;3.03;0.60;;;33.90;31.50;;;;;;5049468;28;20025;-79
2023/07/18 12:02:36;;;;;;;3.13;0.95;;;33.00;31.60;;;;;;5049833;28;20025;-81
2023/07/18 12:05:06;;;;;;;3.33;0.80;;;32.20;32.20;;;;;;5049476;28;20778;-80
2023/07/18 12:07:35;;;;;;;3.10;0.70;;;32.20;32.80;;;;;;5073414;22;20123;-83
2023/07/18 12:10:02;;;;;;;4.57;1.02;;;32.60;32.20;;;;;;5069511;28;20040;-83
2023/07/18 12:12:28;;;;;;;2.80;0.80;;;32.30;30.80;;;;;;5045033;28;20021;-83
2023/07/18 12:14:53;;;;;;;1.67;0.70;;;32.50;31.10;;;;;;5069166;28;20028;-84
2023/07/18 12:17:20;;;;;;;2.78;1.08;;;32.60;32.00;;;;;;5068842;28;20048;-83
2023/07/18 12:19:45;;;;;;;2.10;0.85;;;32.30;31.40;;;;;;5069537;28;20636;-83
2023/07/18 12:22:12;;;;;;;2.88;1.20;;;32.10;29.30;;;;;;5068989;28;20107;-84
2023/07/18 12:24:38;;;;;;;4.30;0.85;;;32.10;30.90;;;;;;5068708;28;20029;-84
2023/07/18 12:27:07;;;;;;;2.63;0.80;;;31.80;30.10;;;;;;5069314;28;20031;-85
2023/07/18 12:29:32;;;;;;;3.88;0.95;;;31.20;31.20;;;;;;5066859;28;20506;-84
2023/07/18 12:31:58;;;;;;;4.03;1.02;;;30.70;30.70;;;;;;5068771;28;20082;-83
2023/07/18 12:34:24;;;;;;;4.47;0.80;;;30.40;33.50;;;;;;5068095;28;20034;-86
2023/07/18 12:36:50;;;;;;;5.10;1.02;;;30.70;33.90;;;;;;5068703;28;20051;-83
2023/07/18 12:39:17;;;;;;;2.13;0.80;;;31.00;32.40;;;;;;5066104;28;20109;-84
2023/07/18 12:41:43;;;;;;;4.82;1.17;;;32.00;31.80;;;;;;5069174;28;20020;-86
2023/07/18 12:44:13;;;;;;;0.63;0.50;;;32.70;32.10;;;;;;5068586;28;20021;-84
2023/07/18 12:46:39;;;;;;;2.47;0.63;;;33.20;28.80;;;;;;5066419;28;20028;-85
2023/07/18 12:49:05;;;;;;;2.85;0.82;;;34.00;29.30;;;;;;5067797;28;20032;-85
2023/07/18 12:51:30;;;;;;;1.98;0.70;;;33.90;28.30;;;;;;5066505;28;20064;-86
2023/07/18 12:53:56;;;;;;;1.58;0.73;;;33.70;27.70;;;;;;5066685;28;20028;-86